Stations météo

réclame
Mon MeteoGroup
London/Gatwick, Grande-Bretagne (3776): Température de l'air & dewpoint: 18.05.2019 04:00:00 - 24.05.2019 04:00:00 (BST)London/Gatwick, Grande-Bretagne (3776): Vitesse du vent: 18.05.2019 04:00:00 - 24.05.2019 04:00:00 (BST)London/Gatwick, Grande-Bretagne (3776): Direction du vent: 18.05.2019 04:00:00 - 24.05.2019 04:00:00 (BST)London/Gatwick, Grande-Bretagne (3776): visibility: 18.05.2019 04:00:00 - 24.05.2019 04:00:00 (BST)
Date & Time tt [°C] td [°C] ff [km/h] ff [knt] dd vv [km]
24.05.2019 04:00:00 9,0 8,0 5 3 SW 10
24.05.2019 03:00:00 10,0 9,0 5 3 SW 8
24.05.2019 02:00:00 10,0 10,0 2 1 - 7
24.05.2019 01:00:00 10,0 9,0 5 3 WSW 8
24.05.2019 00:00:00 12,0 10,0 8 4 SW 10
23.05.2019 23:00:00 13,0 10,0 9 5 SSW 10
23.05.2019 22:00:00 13,0 9,0 8 4 S 10
23.05.2019 21:00:00 15,0 9,0 13 7 S 10
23.05.2019 20:00:00 18,0 7,0 11 6 SSW 10
23.05.2019 19:00:00 19,0 7,0 13 7 SW 10
23.05.2019 18:00:00 21,0 7,0 16 9 WSW 10
23.05.2019 17:00:00 21,0 10,0 18 10 SSW 10
23.05.2019 16:00:00 22,0 8,0 18 10 SW 10
23.05.2019 15:00:00 22,0 8,0 13 7 SW 10
23.05.2019 14:00:00 22,0 9,0 21 11 SSW 10
23.05.2019 13:00:00 21,0 9,0 18 10 SW 10
23.05.2019 12:00:00 20,0 9,0 13 7 SSW 10
23.05.2019 11:00:00 20,0 8,0 13 7 S 10
23.05.2019 10:00:00 18,0 8,0 4 2 - 10
23.05.2019 09:00:00 16,0 6,0 4 2 - 10
23.05.2019 08:00:00 12,0 7,0 4 2 - 10
23.05.2019 07:00:00 11,0 8,0 4 2 E 10
23.05.2019 06:00:00 8,0 7,0 2 1 - 10
23.05.2019 05:00:00 6,0 5,0 2 1 - 10
23.05.2019 04:00:00 8,0 7,0 2 1 - 10
23.05.2019 03:00:00 8,0 7,0 4 2 - 10
23.05.2019 02:00:00 9,0 7,0 8 4 SSW 8
23.05.2019 01:00:00 10,0 8,0 5 3 SSW 10
23.05.2019 00:00:00 11,0 8,0 8 4 SSW 10
22.05.2019 23:00:00 12,0 8,0 8 4 S 10
22.05.2019 22:00:00 13,0 9,0 9 5 S 10
22.05.2019 21:00:00 16,0 7,0 9 5 SSW 10
22.05.2019 20:00:00 18,0 5,0 15 8 SW 10
22.05.2019 19:00:00 19,0 4,0 16 9 SSW 10
22.05.2019 18:00:00 20,0 5,0 15 8 SW 10
22.05.2019 17:00:00 20,0 6,0 11 6 S 10
22.05.2019 16:00:00 19,0 5,0 15 8 SW 10
22.05.2019 15:00:00 19,0 5,0 15 8 SSW 10
22.05.2019 14:00:00 19,0 5,0 13 7 SSW 10
22.05.2019 13:00:00 19,0 6,0 13 7 WSW 10
22.05.2019 12:00:00 18,0 5,0 11 6 W 10
22.05.2019 11:00:00 18,0 4,0 2 1 - 10
22.05.2019 10:00:00 16,0 6,0 5 3 - 10
22.05.2019 09:00:00 14,0 5,0 9 5 E 10
22.05.2019 08:00:00 13,0 5,0 8 4 NE 10
22.05.2019 07:00:00 11,0 6,0 5 3 E 10
22.05.2019 06:00:00 10,0 6,0 2 1 - 10
22.05.2019 05:00:00 10,0 7,0 2 1 - 10
22.05.2019 04:00:00 10,0 7,0 2 1 E 10
22.05.2019 03:00:00 9,0 6,0 5 3 W 10
22.05.2019 02:00:00 10,0 7,0 2 1 SW 10
22.05.2019 01:00:00 10,0 6,0 2 1 - 10
22.05.2019 00:00:00 12,0 6,0 2 1 - 10
21.05.2019 23:00:00 15,0 6,0 8 4 WNW 10
21.05.2019 22:00:00 16,0 6,0 11 6 NW 10
21.05.2019 21:00:00 17,0 6,0 8 4 WNW 10
21.05.2019 20:00:00 19,0 6,0 13 7 NW 10
21.05.2019 19:00:00 19,0 6,0 13 7 WNW 10
21.05.2019 18:00:00 20,0 6,0 13 7 NW 10
21.05.2019 17:00:00 19,0 5,0 15 8 WNW 10
21.05.2019 16:00:00 20,0 5,0 16 9 WNW 10
21.05.2019 15:00:00 20,0 5,0 15 8 NW 10
21.05.2019 14:00:00 19,0 4,0 13 7 WNW 10
21.05.2019 13:00:00 19,0 5,0 15 8 NW 10
21.05.2019 12:00:00 18,0 6,0 16 9 NW 10
21.05.2019 11:00:00 17,0 7,0 15 8 NW 10
21.05.2019 10:00:00 15,0 7,0 15 8 NW 10
21.05.2019 09:00:00 14,0 8,0 13 7 N 10
21.05.2019 08:00:00 13,0 8,0 13 7 NNW 10
21.05.2019 07:00:00 11,0 8,0 11 6 NW 10
21.05.2019 06:00:00 10,0 7,0 5 3 - 10
21.05.2019 05:00:00 9,0 7,0 5 3 WNW 10
21.05.2019 04:00:00 10,0 8,0 4 2 - 10
21.05.2019 03:00:00 11,0 8,0 5 3 NW 10
21.05.2019 02:00:00 11,0 8,0 8 4 NW 10
21.05.2019 01:00:00 10,0 8,0 2 1 - 10
21.05.2019 00:00:00 12,0 9,0 2 1 WSW 10
20.05.2019 23:00:00 15,0 9,0 8 4 NW 10
20.05.2019 22:00:00 16,0 9,0 8 4 NW 10
20.05.2019 21:00:00 17,0 9,0 11 6 WNW 10
20.05.2019 20:00:00 18,0 8,0 9 5 NW 10
20.05.2019 19:00:00 18,0 8,0 11 6 NW 10
20.05.2019 18:00:00 19,0 8,0 13 7 NW 10
20.05.2019 17:00:00 19,0 9,0 11 6 NNW 10
20.05.2019 16:00:00 19,0 9,0 11 6 NW 10
20.05.2019 15:00:00 18,0 10,0 8 4 - 10
20.05.2019 14:00:00 17,0 10,0 13 7 NW 10
20.05.2019 13:00:00 17,0 10,0 16 9 WNW 10
20.05.2019 12:00:00 17,0 10,0 11 6 NNW 10
20.05.2019 11:00:00 17,0 11,0 15 8 WNW 10
20.05.2019 10:00:00 16,0 11,0 9 5 NNW 10
20.05.2019 09:00:00 14,0 11,0 11 6 NNW 9
20.05.2019 08:00:00 13,0 11,0 9 5 - 8
20.05.2019 07:00:00 13,0 11,0 9 5 NW 5
20.05.2019 06:00:00 12,0 11,0 5 3 - 5
20.05.2019 05:00:00 12,0 10,0 5 3 NNW 6
20.05.2019 04:00:00 11,0 10,0 2 1 E 6
20.05.2019 03:00:00 12,0 10,0 4 2 - 9
20.05.2019 02:00:00 12,0 10,0 5 3 NNE 10
20.05.2019 01:00:00 13,0 11,0 4 2 NW 8
20.05.2019 00:00:00 12,0 11,0 5 3 WSW 5
19.05.2019 23:00:00 13,0 11,0 2 1 - 7
19.05.2019 22:00:00 14,0 11,0 2 1 S 7
19.05.2019 21:00:00 14,0 12,0 4 2 SSW 10
19.05.2019 20:00:00 16,0 11,0 5 3 - 9
19.05.2019 19:00:00 16,0 11,0 4 2 - 10
19.05.2019 18:00:00 16,0 11,0 9 5 WNW 10
19.05.2019 17:00:00 16,0 11,0 9 5 NW 10
19.05.2019 16:00:00 15,0 11,0 11 6 NW 9
19.05.2019 15:00:00 15,0 11,0 13 7 NW 10
19.05.2019 14:00:00 17,0 10,0 9 5 NNE 8
19.05.2019 13:00:00 16,0 10,0 4 2 - 8
19.05.2019 12:00:00 15,0 10,0 9 5 - 5
19.05.2019 11:00:00 15,0 11,0 9 5 NNW 3,5
19.05.2019 10:00:00 13,0 11,0 8 4 - 3,0
19.05.2019 09:00:00 12,0 11,0 5 3 - 2,8
19.05.2019 08:00:00 12,0 10,0 5 3 - 3,3
19.05.2019 07:00:00 11,0 10,0 8 4 NNE 4,5
19.05.2019 06:00:00 10,0 9,0 5 3 - 5
19.05.2019 05:00:00 10,0 9,0 2 1 - 6
19.05.2019 04:00:00 10,0 9,0 4 2 - 8
19.05.2019 03:00:00 8,0 8,0 5 3 W 7
19.05.2019 02:00:00 9,0 8,0 4 2 WSW 7
19.05.2019 01:00:00 10,0 9,0 2 1 S 8
19.05.2019 00:00:00 12,0 10,0 5 3 - 8
18.05.2019 23:00:00 12,0 10,0 5 3 - 10
18.05.2019 22:00:00 12,0 9,0 9 5 E 10
18.05.2019 21:00:00 15,0 9,0 4 2 WSW 10
18.05.2019 20:00:00 15,0 9,0 8 4 SE 10
18.05.2019 19:00:00 17,0 8,0 8 4 W 10
18.05.2019 18:00:00 17,0 8,0 8 4 WSW 10
18.05.2019 17:00:00 16,0 9,0 8 4 ENE 10
18.05.2019 16:00:00 15,0 10,0 9 5 E 10
18.05.2019 15:00:00 16,0 8,0 5 3 - 10
18.05.2019 14:00:00 17,0 9,0 9 5 WNW 10
18.05.2019 13:00:00 17,0 8,0 4 2 - 10
18.05.2019 12:00:00 15,0 8,0 4 2 - 10
18.05.2019 11:00:00 14,0 8,0 5 3 - 10
18.05.2019 10:00:00 13,0 9,0 8 4 E 10
18.05.2019 09:00:00 12,0 9,0 8 4 NE 9
18.05.2019 08:00:00 11,0 9,0 8 4 NE 5
18.05.2019 07:00:00 10,0 9,0 5 3 - 4,5
18.05.2019 06:00:00 9,0 8,0 2 1 - 3,5
18.05.2019 05:00:00 8,0 7,0 2 1 - 4,0
18.05.2019 04:00:00 9,0 8,0 5 3 NNE 6

tt = Température de l'air
td = dewpoint
ff = Vitesse du vent
dd = Direction du vent
vv = visibility

stations d'obs. à proximité